CheckWX is a tool to help pilots better visualize weather data.  It is not intended as a substitute for an official pre-flight weather briefing.

04:06:14 UTC

CYPO METAR
Peawanuck Airport
Peawanuck, Canada
Current

1 hour ago

CYPO 250300Z AUTO 18010KT 9SM OVC031 03/00 A2947 RMK SLP984
Observed
Apr-25 @ 03:00 UTC
Wind
  • 180° at 10 KTS
Visibility
9 SM
Flight Rules
VFR
Cloud Levels
  • Overcast at 3,100' AGL
Temperature
C / 37°F
Dewpoint
C / 32°F
Humidity
81%
Altimeter
29.47" Hg
Pressure
998.02 hPa
Previous

2 hours ago

CYPO 250200Z AUTO 19012G18KT 9SM OVC031 04/M00 A2949 RMK SLP990
Observed
Apr-25 @ 02:00 UTC
Wind
  • 190° at 12 KTS
  • Gusting to 18 KTS
Visibility
9 SM
Flight Rules
VFR
Cloud Levels
  • Overcast at 3,100' AGL
Temperature
C / 39°F
Dewpoint
C / 32°F
Humidity
75%
Altimeter
29.49" Hg
Pressure
998.62 hPa
Previous

3 hours ago

CYPO 250100Z AUTO 18010G16KT 9SM OVC029 04/M01 A2949 RMK SLP990
Observed
Apr-25 @ 01:00 UTC
Wind
  • 180° at 10 KTS
  • Gusting to 16 KTS
Visibility
9 SM
Flight Rules
MVFR
Cloud Levels
  • Overcast at 2,900' AGL
Temperature
C / 39°F
Dewpoint
-1°C / 30°F
Humidity
70%
Altimeter
29.49" Hg
Pressure
998.62 hPa